createdAt,value
2017-09-06T00:01:28.013Z,8.55
2017-09-06T00:03:55.631Z,9.25
2017-09-06T00:06:23.292Z,11.32
2017-09-06T00:08:50.919Z,8.80
2017-09-06T00:11:18.562Z,9.75
2017-09-06T00:13:46.219Z,8.25
2017-09-06T00:16:13.835Z,8.55
2017-09-06T00:18:41.495Z,9.40
2017-09-06T00:21:09.128Z,9.00
2017-09-06T00:23:36.765Z,10.70
2017-09-06T00:26:04.426Z,8.00
2017-09-06T00:28:32.048Z,9.75
2017-09-06T00:30:59.712Z,7.50
2017-09-06T00:33:27.347Z,9.77
2017-09-06T00:35:54.967Z,9.18
2017-09-06T00:38:22.624Z,9.55
2017-09-06T00:40:50.258Z,10.90
2017-09-06T00:43:17.910Z,8.50
2017-09-06T00:45:45.543Z,10.60
2017-09-06T00:48:13.177Z,9.13
2017-09-06T00:50:40.842Z,11.00
2017-09-06T00:53:08.464Z,11.10
2017-09-06T00:55:36.129Z,8.57
2017-09-06T00:58:03.776Z,9.90
2017-09-06T01:00:31.401Z,9.88
2017-09-06T01:02:59.069Z,9.98
2017-09-06T01:05:26.691Z,10.00
2017-09-06T01:07:54.361Z,9.75
2017-09-06T01:10:21.988Z,9.15
2017-09-06T01:12:49.625Z,10.20
2017-09-06T01:15:17.317Z,9.85
2017-09-06T01:17:44.942Z,8.05
2017-09-06T01:20:12.617Z,9.88
2017-09-06T01:22:40.253Z,9.35
2017-09-06T01:25:07.876Z,7.95
2017-09-06T01:27:35.544Z,8.80
2017-09-06T01:30:03.164Z,9.75
2017-09-06T01:32:30.798Z,7.60
2017-09-06T01:34:58.472Z,8.52
2017-09-06T01:37:26.101Z,9.27
2017-09-06T01:39:53.729Z,9.00
2017-09-06T01:42:21.392Z,8.75
2017-09-06T01:44:49.019Z,9.50
2017-09-06T01:47:16.639Z,8.80
2017-09-06T01:49:44.322Z,9.05
2017-09-06T01:52:11.946Z,9.43
2017-09-06T01:54:39.585Z,9.35
2017-09-06T01:57:07.258Z,8.32
2017-09-06T01:59:34.892Z,10.52
2017-09-06T02:02:02.524Z,10.77
2017-09-06T02:04:30.184Z,9.90
2017-09-06T02:06:57.845Z,10.20
2017-09-06T02:09:25.532Z,9.77
2017-09-06T02:11:53.209Z,9.63
2017-09-06T02:14:20.842Z,7.50
2017-09-06T02:16:48.481Z,8.43
2017-09-06T02:19:16.152Z,8.95
2017-09-06T02:21:43.794Z,10.23
2017-09-06T02:24:11.457Z,11.95
2017-09-06T02:26:39.717Z,9.07
2017-09-06T02:29:07.342Z,9.18
2017-09-06T02:31:34.978Z,10.63
2017-09-06T02:34:02.657Z,11.20
2017-09-06T02:36:30.293Z,9.38
2017-09-06T02:38:57.935Z,9.95
2017-09-06T02:41:25.606Z,8.82
2017-09-06T02:43:53.224Z,6.95
2017-09-06T02:46:20.861Z,9.02
2017-09-06T02:48:48.515Z,9.13
2017-09-06T02:51:16.149Z,9.73
2017-09-06T02:53:43.788Z,11.30
2017-09-06T02:56:11.447Z,8.10
2017-09-06T02:58:39.083Z,9.68
2017-09-06T03:01:06.719Z,8.60
2017-09-06T03:03:34.486Z,9.85
2017-09-06T03:06:02.134Z,10.13
2017-09-06T03:08:29.778Z,10.00
2017-09-06T03:10:57.432Z,9.88
2017-09-06T03:13:25.056Z,8.52
2017-09-06T03:15:52.688Z,8.10
2017-09-06T03:18:20.347Z,8.45
2017-09-06T03:20:47.989Z,9.25
2017-09-06T03:23:15.626Z,8.80
2017-09-06T03:25:43.297Z,9.60
2017-09-06T03:28:10.929Z,9.55
2017-09-06T03:30:38.562Z,9.18
2017-09-06T03:33:06.226Z,10.45
2017-09-06T03:35:33.854Z,7.97
2017-09-06T03:38:01.495Z,8.40
2017-09-06T03:40:29.151Z,9.10
2017-09-06T03:42:56.772Z,7.62
2017-09-06T03:45:24.402Z,8.52
2017-09-06T03:47:52.064Z,8.40
2017-09-06T03:50:19.701Z,9.52
2017-09-06T03:52:47.331Z,8.00
2017-09-06T03:55:14.993Z,9.15
2017-09-06T03:57:42.615Z,9.60
2017-09-06T04:00:10.259Z,10.18
2017-09-06T04:02:37.910Z,10.23
2017-09-06T04:05:05.528Z,8.23
2017-09-06T04:07:33.163Z,9.38
2017-09-06T04:10:00.826Z,8.55
2017-09-06T04:12:28.465Z,8.73
2017-09-06T04:14:56.098Z,8.35
2017-09-06T04:17:23.760Z,8.77
2017-09-06T04:19:51.400Z,8.48
2017-09-06T04:22:19.029Z,9.43
2017-09-06T04:24:46.697Z,8.20
2017-09-06T04:27:14.325Z,7.50
2017-09-06T04:29:41.961Z,7.53
2017-09-06T04:32:09.643Z,8.57
2017-09-06T04:34:37.281Z,7.43
2017-09-06T04:37:04.978Z,9.77
2017-09-06T04:39:32.661Z,9.77
2017-09-06T04:42:00.294Z,9.43
2017-09-06T04:44:27.934Z,10.27
2017-09-06T04:46:55.588Z,8.27
2017-09-06T04:49:23.313Z,8.00
2017-09-06T04:51:50.953Z,8.68
2017-09-06T04:54:18.612Z,9.18
2017-09-06T04:56:46.244Z,9.15
2017-09-06T04:59:13.901Z,8.05
2017-09-06T05:01:41.589Z,7.78
2017-09-06T05:04:12.971Z,7.95
2017-09-06T05:06:40.622Z,8.55
2017-09-06T05:09:08.285Z,7.50
2017-09-06T05:11:35.925Z,9.27
2017-09-06T05:14:04.408Z,8.25
2017-09-06T05:16:32.023Z,8.50
2017-09-06T05:18:59.647Z,9.98
2017-09-06T05:21:27.315Z,8.50
2017-09-06T05:23:54.948Z,9.55
2017-09-06T05:26:22.572Z,8.75
2017-09-06T05:28:50.245Z,9.20
2017-09-06T05:31:17.888Z,9.50
2017-09-06T05:33:45.526Z,8.20
2017-09-06T05:36:13.212Z,8.55
2017-09-06T05:38:40.862Z,10.45
2017-09-06T05:41:08.500Z,7.82
2017-09-06T05:43:36.174Z,7.62
2017-09-06T05:46:03.810Z,8.43
2017-09-06T05:48:31.436Z,8.45
2017-09-06T05:50:59.110Z,8.25
2017-09-06T05:53:26.744Z,8.40
2017-09-06T05:55:54.380Z,8.35
2017-09-06T05:58:22.042Z,8.30
2017-09-06T06:00:49.680Z,7.20
2017-09-06T06:03:17.306Z,7.68
2017-09-06T06:05:44.973Z,9.07
2017-09-06T06:08:12.601Z,8.98
2017-09-06T06:10:40.233Z,7.90
2017-09-06T06:13:07.892Z,9.45
2017-09-06T06:15:35.521Z,9.98
2017-09-06T06:18:03.152Z,9.00
2017-09-06T06:20:30.825Z,11.82
2017-09-06T06:22:58.462Z,9.32
2017-09-06T06:25:26.088Z,8.48
2017-09-06T06:27:53.766Z,7.72
2017-09-06T06:30:21.391Z,7.30
2017-09-06T06:32:49.030Z,8.88
2017-09-06T06:35:16.700Z,9.35
2017-09-06T06:37:44.332Z,8.20
2017-09-06T06:40:11.969Z,9.20
2017-09-06T06:42:39.640Z,9.18
2017-09-06T06:45:07.281Z,9.10
2017-09-06T06:47:34.908Z,8.32
2017-09-06T06:50:02.585Z,9.32
2017-09-06T06:52:30.229Z,9.60
2017-09-06T06:54:57.853Z,10.75
2017-09-06T06:57:25.541Z,11.35
2017-09-06T06:59:53.167Z,10.02
2017-09-06T07:02:20.789Z,9.88
2017-09-06T07:04:48.490Z,8.80
2017-09-06T07:07:16.129Z,9.98
2017-09-06T07:09:43.758Z,9.55
2017-09-06T07:12:11.423Z,10.52
2017-09-06T07:14:39.061Z,8.80
2017-09-06T07:17:06.692Z,7.90
2017-09-06T07:19:34.379Z,15.52
2017-09-06T07:22:02.012Z,9.82
2017-09-06T07:24:29.653Z,9.40
2017-09-06T07:26:57.324Z,11.00
2017-09-06T07:29:24.960Z,8.55
2017-09-06T07:31:52.602Z,8.80
2017-09-06T07:34:20.259Z,9.07
2017-09-06T07:36:47.901Z,10.23
2017-09-06T07:39:15.538Z,9.35
2017-09-06T07:41:43.208Z,8.40
2017-09-06T07:44:10.837Z,7.60
2017-09-06T07:46:38.487Z,7.78
2017-09-06T07:49:06.161Z,7.95
2017-09-06T07:51:33.789Z,8.38
2017-09-06T07:54:01.446Z,8.65
2017-09-06T07:56:29.107Z,8.38
2017-09-06T07:58:56.735Z,8.67
2017-09-06T08:01:24.350Z,9.70
2017-09-06T08:03:52.021Z,9.10
2017-09-06T08:06:19.665Z,8.55
2017-09-06T08:08:47.273Z,8.53
2017-09-06T08:11:14.921Z,8.20
2017-09-06T08:13:42.567Z,7.97
2017-09-06T08:16:10.176Z,7.57
2017-09-06T08:18:37.816Z,7.07
2017-09-06T08:21:05.434Z,8.18
2017-09-06T08:23:33.042Z,6.97
2017-09-06T08:26:00.680Z,7.00
2017-09-06T08:28:28.283Z,8.20
2017-09-06T08:30:55.901Z,7.97
2017-09-06T08:33:23.546Z,7.90
2017-09-06T08:35:51.149Z,9.60
2017-09-06T08:38:18.762Z,10.63
2017-09-06T08:40:46.416Z,11.60
2017-09-06T08:43:14.047Z,9.03
2017-09-06T08:45:41.669Z,10.00
2017-09-06T08:48:09.330Z,7.90
2017-09-06T08:50:36.944Z,8.37
2017-09-06T08:53:04.552Z,6.93
2017-09-06T08:55:32.187Z,9.90
2017-09-06T08:57:59.788Z,7.07
2017-09-06T09:00:27.387Z,8.87
2017-09-06T09:02:55.029Z,7.23
2017-09-06T09:05:22.642Z,7.80
2017-09-06T09:07:50.253Z,7.57
2017-09-06T09:10:17.903Z,7.97
2017-09-06T09:12:45.499Z,7.50
2017-09-06T09:15:13.113Z,7.10
2017-09-06T09:17:40.743Z,7.00
2017-09-06T09:20:08.366Z,7.10
2017-09-06T09:22:35.972Z,7.07
2017-09-06T09:25:03.608Z,6.47
2017-09-06T09:27:31.227Z,6.73
2017-09-06T09:29:58.849Z,5.70
2017-09-06T09:32:26.492Z,5.53
2017-09-06T09:34:54.112Z,5.93
2017-09-06T09:37:21.728Z,6.07
2017-09-06T09:39:49.367Z,4.97
2017-09-06T09:42:16.978Z,16.83
2017-09-06T09:44:44.588Z,6.93
2017-09-06T09:47:12.216Z,3.53
2017-09-06T09:49:39.831Z,4.80
2017-09-06T09:52:07.442Z,4.23
2017-09-06T09:54:35.078Z,4.47
2017-09-06T09:57:02.689Z,5.63
2017-09-06T09:59:30.301Z,4.43
2017-09-06T10:01:57.941Z,4.27
2017-09-06T10:04:25.538Z,4.67
2017-09-06T10:06:53.148Z,4.57
2017-09-06T10:09:20.787Z,3.70
2017-09-06T10:11:48.406Z,3.60
2017-09-06T10:14:16.013Z,2.83
2017-09-06T10:16:43.660Z,2.83
2017-09-06T10:19:11.261Z,2.87
2017-09-06T10:21:38.872Z,3.20
2017-09-06T10:24:06.530Z,3.10
2017-09-06T10:26:34.142Z,2.57
2017-09-06T10:29:01.748Z,2.90
2017-09-06T10:31:29.415Z,2.80
2017-09-06T10:33:57.021Z,3.30
2017-09-06T10:36:24.642Z,2.90
2017-09-06T10:38:52.294Z,3.00
2017-09-06T10:41:19.900Z,2.87
2017-09-06T10:43:47.503Z,3.43
2017-09-06T10:46:15.139Z,7.83
2017-09-06T10:48:42.759Z,3.37
2017-09-06T10:51:10.382Z,2.90
2017-09-06T10:53:38.022Z,3.40
2017-09-06T10:56:05.625Z,3.00
2017-09-06T10:58:33.231Z,2.60
2017-09-06T11:01:00.882Z,2.63
2017-09-06T11:03:28.496Z,2.73
2017-09-06T11:05:56.106Z,2.43
2017-09-06T11:08:23.748Z,2.37
2017-09-06T11:10:51.373Z,2.70
2017-09-06T11:13:18.976Z,2.43
2017-09-06T11:15:46.620Z,2.90
2017-09-06T11:18:14.223Z,3.20
2017-09-06T11:20:41.834Z,2.87
2017-09-06T11:23:09.479Z,2.30
2017-09-06T11:25:37.101Z,3.00
2017-09-06T11:28:04.718Z,2.83
2017-09-06T11:30:32.364Z,2.23
2017-09-06T11:32:59.980Z,2.23
2017-09-06T11:35:27.583Z,2.23
2017-09-06T11:37:55.227Z,2.90
2017-09-06T11:40:22.846Z,2.60
2017-09-06T11:42:50.451Z,2.80
2017-09-06T11:45:18.094Z,2.90
2017-09-06T11:47:45.713Z,2.90
2017-09-06T11:50:13.328Z,2.67
2017-09-06T11:52:40.974Z,2.43
2017-09-06T11:55:08.568Z,2.30
2017-09-06T11:57:36.161Z,2.50
2017-09-06T12:00:03.803Z,2.20
2017-09-06T12:02:31.413Z,2.27
2017-09-06T12:04:59.020Z,2.07
2017-09-06T12:07:26.673Z,2.80
2017-09-06T12:09:54.301Z,2.70
2017-09-06T12:12:21.922Z,8.40
2017-09-06T12:14:49.575Z,6.03
2017-09-06T12:17:17.184Z,3.43
2017-09-06T12:19:44.798Z,4.10
2017-09-06T12:22:12.433Z,4.00
2017-09-06T12:24:40.032Z,3.03
2017-09-06T12:27:07.642Z,3.93
2017-09-06T12:29:35.289Z,3.40
2017-09-06T12:32:02.949Z,4.03
2017-09-06T12:34:30.552Z,5.00
2017-09-06T12:36:58.200Z,5.20
2017-09-06T12:39:25.813Z,4.00
2017-09-06T12:41:53.460Z,3.90
2017-09-06T12:44:21.114Z,3.30
2017-09-06T12:46:48.733Z,4.33
2017-09-06T12:49:16.340Z,5.27
2017-09-06T12:51:44.003Z,4.70
2017-09-06T12:54:11.632Z,4.23
2017-09-06T12:56:39.240Z,4.10
2017-09-06T12:59:06.876Z,4.13
2017-09-06T13:01:34.480Z,3.40
2017-09-06T13:04:02.094Z,3.43
2017-09-06T13:06:29.761Z,3.80
2017-09-06T13:08:57.362Z,3.20
2017-09-06T13:11:24.974Z,3.10
2017-09-06T13:13:52.612Z,2.80
2017-09-06T13:16:20.216Z,3.97
2017-09-06T13:18:47.826Z,2.23
2017-09-06T13:21:15.479Z,3.27
2017-09-06T13:23:43.089Z,2.80
2017-09-06T13:26:10.696Z,3.63
2017-09-06T13:28:38.347Z,2.40
2017-09-06T13:31:05.963Z,2.20
2017-09-06T13:33:33.559Z,1.90
2017-09-06T13:36:01.196Z,1.80
2017-09-06T13:38:28.812Z,2.20
2017-09-06T13:40:56.412Z,2.43
2017-09-06T13:43:24.055Z,2.20
2017-09-06T13:45:51.665Z,1.90
2017-09-06T13:48:19.276Z,2.90
2017-09-06T13:50:46.916Z,1.50
2017-09-06T13:53:14.524Z,1.67
2017-09-06T13:55:42.129Z,1.67
2017-09-06T13:58:09.773Z,1.70
2017-09-06T14:00:37.382Z,1.50
2017-09-06T14:03:05.000Z,1.80
2017-09-06T14:05:32.640Z,1.40
2017-09-06T14:08:00.248Z,1.60
2017-09-06T14:10:27.862Z,1.17
2017-09-06T14:12:55.518Z,2.60
2017-09-06T14:15:23.128Z,1.43
2017-09-06T14:17:50.737Z,1.60
2017-09-06T14:20:18.387Z,2.20
2017-09-06T14:22:45.991Z,1.83
2017-09-06T14:25:13.592Z,2.53
2017-09-06T14:27:41.238Z,1.60
2017-09-06T14:30:08.849Z,1.37
2017-09-06T14:32:36.493Z,1.70
2017-09-06T14:35:04.134Z,2.17
2017-09-06T14:37:31.749Z,2.10
2017-09-06T14:39:59.359Z,3.33
2017-09-06T14:42:27.005Z,2.00
2017-09-06T14:44:54.630Z,2.00
2017-09-06T14:47:22.242Z,1.57
2017-09-06T14:49:49.880Z,1.50
2017-09-06T14:52:17.480Z,1.97
2017-09-06T14:54:45.998Z,1.20
2017-09-06T14:57:13.735Z,1.50
2017-09-06T14:59:41.338Z,1.30
2017-09-06T15:02:08.951Z,1.53
2017-09-06T15:04:36.610Z,1.50
2017-09-06T15:07:04.220Z,4.50
2017-09-06T15:09:31.827Z,2.60
2017-09-06T15:11:59.464Z,4.90
2017-09-06T15:14:27.073Z,6.17
2017-09-06T15:16:54.690Z,3.00
2017-09-06T15:19:22.334Z,1.93
2017-09-06T15:21:49.944Z,1.80
2017-09-06T15:24:17.566Z,1.73
2017-09-06T15:26:45.213Z,1.47
2017-09-06T15:29:12.825Z,1.60
2017-09-06T15:31:40.441Z,2.70
2017-09-06T15:34:08.094Z,1.60
2017-09-06T15:36:35.706Z,1.87
2017-09-06T15:39:03.304Z,1.97
2017-09-06T15:41:30.949Z,2.70
2017-09-06T15:43:58.558Z,2.97
2017-09-06T15:46:26.181Z,3.07
2017-09-06T15:48:53.820Z,3.47
2017-09-06T15:51:21.443Z,3.40
2017-09-06T15:53:49.078Z,4.00
2017-09-06T15:56:16.754Z,3.37
2017-09-06T15:58:44.379Z,3.85
2017-09-06T16:01:12.022Z,3.40
2017-09-06T16:03:39.714Z,3.70
2017-09-06T16:06:07.350Z,4.40
2017-09-06T16:08:34.982Z,4.85
2017-09-06T16:11:03.004Z,5.10
2017-09-06T16:13:30.641Z,6.68
2017-09-06T16:15:58.269Z,6.28
2017-09-06T16:18:25.933Z,5.65
2017-09-06T16:20:53.569Z,7.20
2017-09-06T16:23:21.209Z,7.40
2017-09-06T16:25:48.871Z,8.00
2017-09-06T16:28:16.510Z,5.93
2017-09-06T16:30:44.147Z,6.20
2017-09-06T16:33:11.825Z,5.87
2017-09-06T16:35:39.586Z,5.93
2017-09-06T16:38:07.217Z,6.35
2017-09-06T16:40:34.877Z,7.37
2017-09-06T16:43:02.513Z,7.25
2017-09-06T16:45:30.146Z,8.07
2017-09-06T16:47:57.820Z,7.60
2017-09-06T16:50:25.448Z,9.32
2017-09-06T16:52:53.074Z,8.27
2017-09-06T16:55:20.749Z,9.80
2017-09-06T16:57:48.379Z,9.90
2017-09-06T17:00:16.055Z,10.30
2017-09-06T17:02:43.720Z,9.05
2017-09-06T17:05:11.347Z,9.82
2017-09-06T17:07:38.985Z,9.40
2017-09-06T17:10:06.665Z,9.00
2017-09-06T17:12:34.292Z,9.13
2017-09-06T17:15:01.929Z,8.80
2017-09-06T17:17:29.605Z,8.40
2017-09-06T17:19:57.243Z,8.25
2017-09-06T17:22:24.876Z,12.70
2017-09-06T17:24:52.557Z,9.63
2017-09-06T17:27:20.191Z,10.65
2017-09-06T17:29:47.830Z,11.98
2017-09-06T17:32:15.512Z,9.95
2017-09-06T17:34:43.176Z,12.43
2017-09-06T17:37:10.813Z,10.15
2017-09-06T17:39:38.481Z,10.52
2017-09-06T17:42:06.108Z,10.63
2017-09-06T17:44:33.732Z,9.48
2017-09-06T17:47:01.405Z,10.45
2017-09-06T17:49:29.027Z,9.38
2017-09-06T17:51:56.661Z,10.05
2017-09-06T17:54:24.324Z,10.45
2017-09-06T17:56:51.948Z,10.30
2017-09-06T17:59:19.584Z,10.05
2017-09-06T18:01:47.239Z,9.38
2017-09-06T18:04:14.865Z,10.52
2017-09-06T18:06:42.491Z,9.52
2017-09-06T18:09:10.163Z,8.68
2017-09-06T18:11:37.810Z,12.40
2017-09-06T18:14:05.448Z,12.02
2017-09-06T18:16:33.120Z,9.02
2017-09-06T18:19:00.822Z,9.77
2017-09-06T18:21:28.486Z,9.88
2017-09-06T18:23:56.182Z,8.40
2017-09-06T18:26:23.822Z,9.38
2017-09-06T18:28:51.448Z,8.20
2017-09-06T18:31:19.114Z,9.23
2017-09-06T18:33:46.749Z,8.70
2017-09-06T18:36:14.453Z,9.00
2017-09-06T18:38:42.150Z,10.60
2017-09-06T18:41:09.774Z,8.93
2017-09-06T18:43:37.406Z,8.80
2017-09-06T18:46:05.077Z,7.80
2017-09-06T18:48:32.713Z,9.50
2017-09-06T18:51:00.344Z,7.85
2017-09-06T18:53:28.004Z,7.18
2017-09-06T18:55:55.624Z,7.22
2017-09-06T18:58:23.253Z,8.48
2017-09-06T19:00:50.924Z,8.93
2017-09-06T19:03:18.539Z,8.30
2017-09-06T19:05:46.173Z,8.68
2017-09-06T19:08:13.858Z,8.95
2017-09-06T19:10:41.698Z,7.50
2017-09-06T19:13:09.496Z,6.85
2017-09-06T19:15:37.156Z,7.53
2017-09-06T19:18:04.781Z,6.72
2017-09-06T19:20:32.417Z,7.90
2017-09-06T19:23:00.089Z,7.93
2017-09-06T19:25:27.759Z,7.65
2017-09-06T19:27:55.413Z,6.22
2017-09-06T19:30:23.849Z,7.15
2017-09-06T19:32:51.473Z,6.22
2017-09-06T19:35:19.105Z,6.22
2017-09-06T19:37:46.777Z,6.40
2017-09-06T19:40:14.556Z,6.87
2017-09-06T19:42:42.179Z,6.53
2017-09-06T19:45:09.844Z,8.13
2017-09-06T19:47:37.481Z,6.82
2017-09-06T19:50:05.114Z,9.68
2017-09-06T19:52:32.790Z,7.80
2017-09-06T19:55:00.430Z,6.53
2017-09-06T19:57:28.069Z,5.37
2017-09-06T19:59:55.728Z,7.03
2017-09-06T20:02:23.387Z,5.45
2017-09-06T20:04:51.053Z,8.10
2017-09-06T20:07:18.689Z,7.82
2017-09-06T20:09:46.326Z,6.78
2017-09-06T20:12:13.986Z,6.45
2017-09-06T20:14:41.619Z,7.03
2017-09-06T20:17:09.284Z,9.70
2017-09-06T20:19:38.428Z,8.13
2017-09-06T20:22:16.368Z,5.10
2017-09-06T20:24:53.444Z,8.20
2017-09-06T20:27:32.888Z,5.20
2017-09-06T20:30:01.181Z,7.28
2017-09-06T20:32:28.849Z,4.70
2017-09-06T20:34:56.493Z,5.60
2017-09-06T20:37:25.165Z,5.20
2017-09-06T20:39:53.288Z,4.50
2017-09-06T20:42:20.933Z,5.97
2017-09-06T20:44:48.600Z,4.80
2017-09-06T20:47:17.042Z,7.45
2017-09-06T20:49:44.669Z,5.62
2017-09-06T20:52:12.329Z,4.57
2017-09-06T20:54:39.946Z,4.85
2017-09-06T20:57:07.608Z,6.82
2017-09-06T20:59:36.900Z,7.97
2017-09-06T21:02:04.659Z,5.68
2017-09-06T21:04:32.329Z,9.40
2017-09-06T21:07:00.027Z,6.35
2017-09-06T21:09:27.689Z,5.40
2017-09-06T21:11:55.320Z,3.60
2017-09-06T21:14:22.949Z,4.90
2017-09-06T21:16:50.793Z,6.43
2017-09-06T21:19:18.421Z,6.50
2017-09-06T21:21:46.080Z,4.95
2017-09-06T21:24:13.705Z,5.43
2017-09-06T21:26:41.346Z,3.35
2017-09-06T21:29:08.992Z,4.03
2017-09-06T21:31:36.618Z,5.90
2017-09-06T21:34:04.286Z,4.40
2017-09-06T21:36:31.920Z,6.57
2017-09-06T21:38:59.543Z,7.97
2017-09-06T21:41:27.197Z,4.45
2017-09-06T21:43:54.903Z,5.65
2017-09-06T21:46:22.571Z,3.55
2017-09-06T21:48:50.213Z,3.72
2017-09-06T21:51:17.835Z,5.60
2017-09-06T21:53:45.489Z,3.75
2017-09-06T21:56:13.121Z,5.37
2017-09-06T21:58:40.789Z,4.55
2017-09-06T22:01:08.408Z,7.50
2017-09-06T22:03:36.046Z,3.47
2017-09-06T22:06:03.707Z,5.37
2017-09-06T22:08:31.345Z,5.03
2017-09-06T22:10:59.003Z,5.62
2017-09-06T22:13:26.632Z,5.62
2017-09-06T22:15:54.256Z,3.20
2017-09-06T22:18:21.914Z,5.70
2017-09-06T22:20:49.549Z,6.57
2017-09-06T22:23:17.208Z,5.82
2017-09-06T22:25:44.827Z,9.20
2017-09-06T22:28:51.250Z,5.03
2017-09-06T22:31:18.878Z,4.18
2017-09-06T22:33:46.518Z,4.80
2017-09-06T22:36:14.936Z,6.55
2017-09-06T22:38:42.573Z,4.70
2017-09-06T22:41:10.231Z,4.65
2017-09-06T22:43:37.865Z,3.50
2017-09-06T22:46:05.488Z,4.15
2017-09-06T22:48:33.133Z,3.67
2017-09-06T22:51:00.762Z,2.85
2017-09-06T22:53:28.428Z,3.20
2017-09-06T22:55:56.055Z,3.42
2017-09-06T22:58:23.676Z,4.40
2017-09-06T23:00:51.323Z,6.05
2017-09-06T23:03:18.984Z,5.32
2017-09-06T23:05:46.644Z,5.78
2017-09-06T23:08:14.277Z,4.22
2017-09-06T23:10:41.917Z,6.25
2017-09-06T23:13:09.581Z,4.55
2017-09-06T23:15:37.985Z,6.37
2017-09-06T23:18:05.654Z,3.55
2017-09-06T23:20:33.280Z,5.12
2017-09-06T23:23:00.908Z,7.47
2017-09-06T23:25:28.552Z,4.87
2017-09-06T23:27:56.174Z,6.30
2017-09-06T23:30:23.837Z,8.30
2017-09-06T23:32:51.455Z,5.57
2017-09-06T23:35:19.089Z,5.15
2017-09-06T23:37:46.745Z,6.12
2017-09-06T23:40:14.382Z,5.05
2017-09-06T23:42:42.044Z,5.05
2017-09-06T23:45:09.672Z,4.35
2017-09-06T23:47:37.300Z,4.05
2017-09-06T23:50:04.953Z,4.00
2017-09-06T23:52:32.589Z,17.42
2017-09-06T23:55:00.244Z,6.15
2017-09-06T23:57:27.859Z,9.27
2017-09-06T23:59:55.483Z,3.35
